sensor_id;sensor_type;location;lat;lon;timestamp;pressure;altitude;pressure_sealevel;temperature;humidity
6028;BME280;3042;43.194;27.646;2023-05-07T00:01:04;101818.38;;;17.91;100.00
6028;BME280;3042;43.194;27.646;2023-05-07T00:03:32;101842.88;;;17.93;100.00
6028;BME280;3042;43.194;27.646;2023-05-07T00:05:59;101835.47;;;18.09;100.00
6028;BME280;3042;43.194;27.646;2023-05-07T00:08:26;101829.59;;;18.16;100.00
6028;BME280;3042;43.194;27.646;2023-05-07T00:10:53;101831.56;;;18.23;100.00
6028;BME280;3042;43.194;27.646;2023-05-07T00:13:20;101827.19;;;18.22;100.00
6028;BME280;3042;43.194;27.646;2023-05-07T00:15:47;101788.75;;;17.38;100.00
6028;BME280;3042;43.194;27.646;2023-05-07T00:18:16;101865.78;;;17.49;100.00
6028;BME280;3042;43.194;27.646;2023-05-07T00:20:46;101862.63;;;17.34;100.00
6028;BME280;3042;43.194;27.646;2023-05-07T00:23:13;101876.16;;;16.98;100.00
6028;BME280;3042;43.194;27.646;2023-05-07T00:25:40;101860.66;;;17.03;100.00
6028;BME280;3042;43.194;27.646;2023-05-07T00:28:07;101857.50;;;17.12;100.00
6028;BME280;3042;43.194;27.646;2023-05-07T00:30:35;101858.00;;;17.27;100.00
6028;BME280;3042;43.194;27.646;2023-05-07T00:33:02;101866.16;;;16.86;100.00
6028;BME280;3042;43.194;27.646;2023-05-07T00:35:30;101850.69;;;17.17;100.00
6028;BME280;3042;43.194;27.646;2023-05-07T00:37:57;101848.09;;;17.42;100.00
6028;BME280;3042;43.194;27.646;2023-05-07T00:40:25;101857.03;;;17.23;100.00
6028;BME280;3042;43.194;27.646;2023-05-07T00:42:52;101854.25;;;17.19;100.00
6028;BME280;3042;43.194;27.646;2023-05-07T00:45:23;101848.19;;;17.45;100.00
6028;BME280;3042;43.194;27.646;2023-05-07T00:47:54;101846.78;;;17.55;100.00
6028;BME280;3042;43.194;27.646;2023-05-07T00:50:21;101847.66;;;17.56;100.00
6028;BME280;3042;43.194;27.646;2023-05-07T00:52:50;101837.66;;;17.69;100.00
6028;BME280;3042;43.194;27.646;2023-05-07T00:55:17;101762.41;;;17.32;100.00
6028;BME280;3042;43.194;27.646;2023-05-07T00:57:45;101844.25;;;17.82;100.00
6028;BME280;3042;43.194;27.646;2023-05-07T01:00:13;101841.72;;;17.85;100.00
6028;BME280;3042;43.194;27.646;2023-05-07T01:02:40;101760.94;;;17.40;100.00
6028;BME280;3042;43.194;27.646;2023-05-07T01:05:09;101827.59;;;17.55;100.00
6028;BME280;3042;43.194;27.646;2023-05-07T01:07:38;101849.66;;;17.88;100.00
6028;BME280;3042;43.194;27.646;2023-05-07T01:10:09;101823.31;;;17.82;100.00
6028;BME280;3042;43.194;27.646;2023-05-07T01:12:37;101821.31;;;17.75;100.00
6028;BME280;3042;43.194;27.646;2023-05-07T01:15:07;101844.84;;;18.01;100.00
6028;BME280;3042;43.194;27.646;2023-05-07T01:17:35;101822.28;;;17.79;100.00
6028;BME280;3042;43.194;27.646;2023-05-07T01:20:03;101843.97;;;18.02;100.00
6028;BME280;3042;43.194;27.646;2023-05-07T01:22:34;101839.59;;;18.01;100.00
6028;BME280;3042;43.194;27.646;2023-05-07T01:25:03;101750.41;;;17.37;100.00
6028;BME280;3042;43.194;27.646;2023-05-07T01:27:31;101841.06;;;17.92;100.00
6028;BME280;3042;43.194;27.646;2023-05-07T01:29:59;101837.63;;;17.93;100.00
6028;BME280;3042;43.194;27.646;2023-05-07T01:32:30;101842.00;;;17.95;100.00
6028;BME280;3042;43.194;27.646;2023-05-07T01:35:00;101854.88;;;17.88;100.00
6028;BME280;3042;43.194;27.646;2023-05-07T01:37:28;101863.41;;;17.57;100.00
6028;BME280;3042;43.194;27.646;2023-05-07T01:39:57;101867.44;;;17.47;100.00
6028;BME280;3042;43.194;27.646;2023-05-07T01:42:25;101739.28;;;16.67;100.00
6028;BME280;3042;43.194;27.646;2023-05-07T01:44:52;101765.06;;;16.82;100.00
6028;BME280;3042;43.194;27.646;2023-05-07T01:47:20;101860.63;;;17.52;100.00
6028;BME280;3042;43.194;27.646;2023-05-07T01:49:48;101774.25;;;16.97;100.00
6028;BME280;3042;43.194;27.646;2023-05-07T01:52:15;101861.72;;;17.34;100.00
6028;BME280;3042;43.194;27.646;2023-05-07T01:54:42;101785.47;;;16.94;100.00
6028;BME280;3042;43.194;27.646;2023-05-07T01:57:11;101846.53;;;17.47;100.00
6028;BME280;3042;43.194;27.646;2023-05-07T01:59:38;101847.19;;;17.42;100.00
6028;BME280;3042;43.194;27.646;2023-05-07T02:02:05;101846.53;;;17.47;100.00
6028;BME280;3042;43.194;27.646;2023-05-07T02:04:32;101837.03;;;17.49;100.00
6028;BME280;3042;43.194;27.646;2023-05-07T02:07:00;101845.97;;;17.56;100.00
6028;BME280;3042;43.194;27.646;2023-05-07T02:09:27;101836.47;;;17.60;100.00
6028;BME280;3042;43.194;27.646;2023-05-07T02:11:54;101821.91;;;17.66;100.00
6028;BME280;3042;43.194;27.646;2023-05-07T02:14:22;101830.84;;;17.75;100.00
6028;BME280;3042;43.194;27.646;2023-05-07T02:16:49;101797.19;;;17.57;100.00
6028;BME280;3042;43.194;27.646;2023-05-07T02:19:16;101839.09;;;17.34;100.00
6028;BME280;3042;43.194;27.646;2023-05-07T02:21:46;101795.53;;;17.33;100.00
6028;BME280;3042;43.194;27.646;2023-05-07T02:24:13;101820.13;;;17.65;100.00
6028;BME280;3042;43.194;27.646;2023-05-07T02:26:41;101812.31;;;17.67;100.00
6028;BME280;3042;43.194;27.646;2023-05-07T02:29:08;101817.25;;;17.58;100.00
6028;BME280;3042;43.194;27.646;2023-05-07T02:31:36;101816.81;;;17.71;100.00
6028;BME280;3042;43.194;27.646;2023-05-07T02:34:03;101810.75;;;17.72;100.00
6028;BME280;3042;43.194;27.646;2023-05-07T02:36:31;101811.06;;;17.81;100.00
6028;BME280;3042;43.194;27.646;2023-05-07T02:38:58;101796.41;;;17.59;100.00
6028;BME280;3042;43.194;27.646;2023-05-07T02:41:25;101825.31;;;17.64;100.00
6028;BME280;3042;43.194;27.646;2023-05-07T02:43:53;101807.81;;;17.88;100.00
6028;BME280;3042;43.194;27.646;2023-05-07T02:46:20;101809.03;;;18.00;100.00
6028;BME280;3042;43.194;27.646;2023-05-07T02:49:06;101806.63;;;18.06;100.00
6028;BME280;3042;43.194;27.646;2023-05-07T02:51:33;101795.84;;;17.69;100.00
6028;BME280;3042;43.194;27.646;2023-05-07T02:54:00;101820.34;;;17.99;100.00
6028;BME280;3042;43.194;27.646;2023-05-07T02:56:27;101797.25;;;17.85;100.00
6028;BME280;3042;43.194;27.646;2023-05-07T02:58:55;101820.44;;;18.02;100.00
6028;BME280;3042;43.194;27.646;2023-05-07T03:01:22;101833.59;;;17.78;100.00
6028;BME280;3042;43.194;27.646;2023-05-07T03:03:49;101813.69;;;18.08;100.00
6028;BME280;3042;43.194;27.646;2023-05-07T03:06:17;101833.44;;;17.73;100.00
6028;BME280;3042;43.194;27.646;2023-05-07T03:08:45;101820.66;;;18.08;100.00
6028;BME280;3042;43.194;27.646;2023-05-07T03:11:12;101814.69;;;18.13;100.00
6028;BME280;3042;43.194;27.646;2023-05-07T03:13:39;101816.66;;;18.21;100.00
6028;BME280;3042;43.194;27.646;2023-05-07T03:16:06;101813.50;;;18.31;100.00
6028;BME280;3042;43.194;27.646;2023-05-07T03:18:33;101772.09;;;18.48;100.00
6028;BME280;3042;43.194;27.646;2023-05-07T03:21:00;101800.69;;;19.02;100.00
6028;BME280;3042;43.194;27.646;2023-05-07T03:23:29;101804.00;;;19.28;100.00
6028;BME280;3042;43.194;27.646;2023-05-07T03:25:58;101806.69;;;19.31;100.00
6028;BME280;3042;43.194;27.646;2023-05-07T03:28:25;101807.41;;;19.26;100.00
6028;BME280;3042;43.194;27.646;2023-05-07T03:30:52;101837.16;;;18.64;100.00
6028;BME280;3042;43.194;27.646;2023-05-07T03:33:19;101806.97;;;19.42;100.00
6028;BME280;3042;43.194;27.646;2023-05-07T03:35:46;101789.47;;;20.14;100.00
6028;BME280;3042;43.194;27.646;2023-05-07T03:38:13;101788.03;;;20.71;100.00
6028;BME280;3042;43.194;27.646;2023-05-07T03:40:42;101778.84;;;21.44;100.00
6028;BME280;3042;43.194;27.646;2023-05-07T03:43:09;101792.84;;;21.42;100.00
6028;BME280;3042;43.194;27.646;2023-05-07T03:45:36;101767.25;;;21.88;100.00
6028;BME280;3042;43.194;27.646;2023-05-07T03:48:04;101733.66;;;22.34;100.00
6028;BME280;3042;43.194;27.646;2023-05-07T03:50:31;101756.44;;;23.13;100.00
6028;BME280;3042;43.194;27.646;2023-05-07T03:52:58;101750.88;;;23.86;100.00
6028;BME280;3042;43.194;27.646;2023-05-07T03:55:25;101759.03;;;24.34;100.00
6028;BME280;3042;43.194;27.646;2023-05-07T03:57:54;101750.38;;;24.73;100.00
6028;BME280;3042;43.194;27.646;2023-05-07T04:00:22;101758.31;;;24.99;100.00
6028;BME280;3042;43.194;27.646;2023-05-07T04:02:49;101677.06;;;24.18;92.59
6028;BME280;3042;43.194;27.646;2023-05-07T04:05:16;101768.91;;;24.87;90.46
6028;BME280;3042;43.194;27.646;2023-05-07T04:07:43;101774.16;;;24.84;90.56
6028;BME280;3042;43.194;27.646;2023-05-07T04:10:11;101767.16;;;24.98;89.60
6028;BME280;3042;43.194;27.646;2023-05-07T04:12:39;101731.88;;;25.53;88.14
6028;BME280;3042;43.194;27.646;2023-05-07T04:15:08;101670.06;;;25.71;85.44
6028;BME280;3042;43.194;27.646;2023-05-07T04:17:35;101723.75;;;26.19;83.36
6028;BME280;3042;43.194;27.646;2023-05-07T04:20:03;101721.00;;;26.44;82.83
6028;BME280;3042;43.194;27.646;2023-05-07T04:22:32;101715.41;;;26.90;82.08
6028;BME280;3042;43.194;27.646;2023-05-07T04:25:00;101704.31;;;27.45;80.25
6028;BME280;3042;43.194;27.646;2023-05-07T04:27:27;101705.53;;;27.95;78.01
6028;BME280;3042;43.194;27.646;2023-05-07T04:29:55;101630.94;;;28.11;76.81
6028;BME280;3042;43.194;27.646;2023-05-07T04:32:23;101695.09;;;29.07;75.62
6028;BME280;3042;43.194;27.646;2023-05-07T04:34:51;101536.44;;;28.49;72.41
6028;BME280;3042;43.194;27.646;2023-05-07T04:37:18;101686.78;;;29.74;71.72
6028;BME280;3042;43.194;27.646;2023-05-07T04:39:45;101684.13;;;30.16;70.53
6028;BME280;3042;43.194;27.646;2023-05-07T04:42:14;101603.28;;;30.14;69.52
6028;BME280;3042;43.194;27.646;2023-05-07T04:44:41;101568.84;;;30.04;67.77
6028;BME280;3042;43.194;27.646;2023-05-07T04:47:09;101580.53;;;30.36;67.94
6028;BME280;3042;43.194;27.646;2023-05-07T04:49:38;101687.56;;;30.97;66.92
6028;BME280;3042;43.194;27.646;2023-05-07T04:52:05;101700.53;;;30.75;65.16
6028;BME280;3042;43.194;27.646;2023-05-07T04:54:32;101672.91;;;30.40;65.15
6028;BME280;3042;43.194;27.646;2023-05-07T04:57:02;101614.53;;;30.28;64.92
6028;BME280;3042;43.194;27.646;2023-05-07T04:59:30;101699.41;;;30.87;64.92
6028;BME280;3042;43.194;27.646;2023-05-07T05:01:57;101584.91;;;30.39;63.40
6028;BME280;3042;43.194;27.646;2023-05-07T05:04:24;101647.25;;;31.06;63.75
6028;BME280;3042;43.194;27.646;2023-05-07T05:06:53;101637.91;;;31.23;62.63
6028;BME280;3042;43.194;27.646;2023-05-07T05:09:20;101683.34;;;31.55;62.22
6028;BME280;3042;43.194;27.646;2023-05-07T05:11:47;101680.63;;;31.88;62.15
6028;BME280;3042;43.194;27.646;2023-05-07T05:14:15;101691.53;;;31.81;61.54
6028;BME280;3042;43.194;27.646;2023-05-07T05:16:42;101705.94;;;31.44;61.15
6028;BME280;3042;43.194;27.646;2023-05-07T05:19:17;101718.75;;;31.29;61.64
6028;BME280;3042;43.194;27.646;2023-05-07T05:21:45;101736.50;;;30.59;61.43
6028;BME280;3042;43.194;27.646;2023-05-07T05:24:14;101733.25;;;30.83;61.68
6028;BME280;3042;43.194;27.646;2023-05-07T05:26:41;101760.38;;;30.26;62.41
6028;BME280;3042;43.194;27.646;2023-05-07T05:29:08;101764.22;;;30.09;62.20
6028;BME280;3042;43.194;27.646;2023-05-07T05:31:35;101717.47;;;29.45;61.93
6028;BME280;3042;43.194;27.646;2023-05-07T05:34:02;101775.34;;;29.88;62.49
6028;BME280;3042;43.194;27.646;2023-05-07T05:36:30;101760.66;;;30.11;63.15
6028;BME280;3042;43.194;27.646;2023-05-07T05:38:57;101778.22;;;29.76;62.34
6028;BME280;3042;43.194;27.646;2023-05-07T05:41:26;101755.91;;;30.26;62.49
6028;BME280;3042;43.194;27.646;2023-05-07T05:43:53;101757.41;;;30.38;62.30
6028;BME280;3042;43.194;27.646;2023-05-07T05:46:20;101758.53;;;30.28;62.02
6028;BME280;3042;43.194;27.646;2023-05-07T05:48:47;101761.13;;;30.31;61.58
6028;BME280;3042;43.194;27.646;2023-05-07T05:51:14;101755.53;;;30.43;61.04
6028;BME280;3042;43.194;27.646;2023-05-07T05:53:41;101776.72;;;30.07;60.11
6028;BME280;3042;43.194;27.646;2023-05-07T05:56:09;101689.84;;;29.97;60.34
6028;BME280;3042;43.194;27.646;2023-05-07T05:58:38;101758.28;;;30.40;59.65
6028;BME280;3042;43.194;27.646;2023-05-07T06:01:06;101736.38;;;31.02;59.77
6028;BME280;3042;43.194;27.646;2023-05-07T06:03:33;101721.09;;;31.43;58.85
6028;BME280;3042;43.194;27.646;2023-05-07T06:06:01;101716.47;;;31.50;59.73
6028;BME280;3042;43.194;27.646;2023-05-07T06:08:29;101712.81;;;31.85;61.05
6028;BME280;3042;43.194;27.646;2023-05-07T06:10:56;101697.03;;;32.35;59.75
6028;BME280;3042;43.194;27.646;2023-05-07T06:13:24;101663.38;;;32.56;58.53
6028;BME280;3042;43.194;27.646;2023-05-07T06:15:52;101666.41;;;32.99;57.77
6028;BME280;3042;43.194;27.646;2023-05-07T06:18:20;101677.41;;;33.18;57.36
6028;BME280;3042;43.194;27.646;2023-05-07T06:20:47;101679.53;;;33.33;57.34
6028;BME280;3042;43.194;27.646;2023-05-07T06:23:14;101673.47;;;34.00;56.72
6028;BME280;3042;43.194;27.646;2023-05-07T06:25:41;101635.53;;;33.88;55.12
6028;BME280;3042;43.194;27.646;2023-05-07T06:28:08;101671.16;;;34.37;54.42
6028;BME280;3042;43.194;27.646;2023-05-07T06:30:36;101668.19;;;34.66;54.62
6028;BME280;3042;43.194;27.646;2023-05-07T06:33:05;101668.91;;;34.92;53.96
6028;BME280;3042;43.194;27.646;2023-05-07T06:35:32;101662.88;;;35.07;53.03
6028;BME280;3042;43.194;27.646;2023-05-07T06:38:00;101651.44;;;35.64;51.90
6028;BME280;3042;43.194;27.646;2023-05-07T06:40:27;101663.13;;;36.20;51.28
6028;BME280;3042;43.194;27.646;2023-05-07T06:42:54;101666.78;;;36.55;49.58
6028;BME280;3042;43.194;27.646;2023-05-07T06:45:21;101693.69;;;35.81;48.30
6028;BME280;3042;43.194;27.646;2023-05-07T06:47:49;101742.72;;;34.38;48.75
6028;BME280;3042;43.194;27.646;2023-05-07T06:50:17;101769.75;;;33.34;50.40
6028;BME280;3042;43.194;27.646;2023-05-07T06:52:45;101794.88;;;31.49;52.05
6028;BME280;3042;43.194;27.646;2023-05-07T06:55:12;101806.13;;;31.26;53.77
6028;BME280;3042;43.194;27.646;2023-05-07T06:57:39;101811.09;;;30.65;53.75
6028;BME280;3042;43.194;27.646;2023-05-07T07:00:07;101814.53;;;29.83;55.25
6028;BME280;3042;43.194;27.646;2023-05-07T07:02:36;101772.78;;;29.32;55.75
6028;BME280;3042;43.194;27.646;2023-05-07T07:05:03;101810.34;;;29.15;55.75
6028;BME280;3042;43.194;27.646;2023-05-07T07:07:32;101823.94;;;29.51;57.32
6028;BME280;3042;43.194;27.646;2023-05-07T07:09:59;101836.69;;;29.31;55.74
6028;BME280;3042;43.194;27.646;2023-05-07T07:12:26;101843.25;;;29.07;57.15
6028;BME280;3042;43.194;27.646;2023-05-07T07:14:54;101851.16;;;28.45;58.35
6028;BME280;3042;43.194;27.646;2023-05-07T07:17:21;101837.66;;;28.63;59.46
6028;BME280;3042;43.194;27.646;2023-05-07T07:19:48;101829.47;;;28.77;60.47
6028;BME280;3042;43.194;27.646;2023-05-07T07:22:16;101843.41;;;28.26;58.68
6028;BME280;3042;43.194;27.646;2023-05-07T07:24:44;101851.66;;;28.00;59.65
6028;BME280;3042;43.194;27.646;2023-05-07T07:27:11;101854.53;;;27.74;61.02
6028;BME280;3042;43.194;27.646;2023-05-07T07:29:39;101845.63;;;27.79;60.05
6028;BME280;3042;43.194;27.646;2023-05-07T07:32:06;101862.00;;;27.26;60.99
6028;BME280;3042;43.194;27.646;2023-05-07T07:34:33;101847.78;;;27.36;61.39
6028;BME280;3042;43.194;27.646;2023-05-07T07:37:00;101843.22;;;27.50;63.22
6028;BME280;3042;43.194;27.646;2023-05-07T07:39:31;101848.69;;;27.33;60.67
6028;BME280;3042;43.194;27.646;2023-05-07T07:42:00;101857.63;;;27.12;58.83
6028;BME280;3042;43.194;27.646;2023-05-07T07:44:28;101855.91;;;27.04;58.67
6028;BME280;3042;43.194;27.646;2023-05-07T07:46:55;101848.69;;;27.35;57.60
6028;BME280;3042;43.194;27.646;2023-05-07T07:49:27;101826.91;;;27.95;57.31
6028;BME280;3042;43.194;27.646;2023-05-07T07:51:55;101812.50;;;28.19;57.79
6028;BME280;3042;43.194;27.646;2023-05-07T07:54:24;101820.56;;;28.07;55.67
6028;BME280;3042;43.194;27.646;2023-05-07T07:56:52;101827.03;;;27.79;54.84
6028;BME280;3042;43.194;27.646;2023-05-07T07:59:21;101862.00;;;27.26;55.97
6028;BME280;3042;43.194;27.646;2023-05-07T08:01:48;101857.66;;;27.08;54.26
6028;BME280;3042;43.194;27.646;2023-05-07T08:04:17;101854.97;;;27.22;56.59
6028;BME280;3042;43.194;27.646;2023-05-07T08:06:44;101863.84;;;27.08;52.01
6028;BME280;3042;43.194;27.646;2023-05-07T08:09:11;101852.31;;;27.17;53.83
6028;BME280;3042;43.194;27.646;2023-05-07T08:11:39;101826.06;;;26.69;53.98
6028;BME280;3042;43.194;27.646;2023-05-07T08:14:06;101855.91;;;27.05;53.14
6028;BME280;3042;43.194;27.646;2023-05-07T08:16:34;101759.66;;;26.85;55.40
6028;BME280;3042;43.194;27.646;2023-05-07T08:19:01;101822.81;;;27.55;54.06
6028;BME280;3042;43.194;27.646;2023-05-07T08:21:30;101846.06;;;27.29;53.78
6028;BME280;3042;43.194;27.646;2023-05-07T08:23:57;101840.75;;;27.29;52.13
6028;BME280;3042;43.194;27.646;2023-05-07T08:26:24;101852.41;;;27.00;52.56
6028;BME280;3042;43.194;27.646;2023-05-07T08:28:51;101871.19;;;26.57;50.98
6028;BME280;3042;43.194;27.646;2023-05-07T08:31:18;101869.44;;;26.38;51.97
6028;BME280;3042;43.194;27.646;2023-05-07T08:33:47;101807.53;;;26.48;52.23
6028;BME280;3042;43.194;27.646;2023-05-07T08:36:14;101844.47;;;26.94;53.31
6028;BME280;3042;43.194;27.646;2023-05-07T08:38:41;101849.72;;;27.03;53.23
6028;BME280;3042;43.194;27.646;2023-05-07T08:41:11;101849.81;;;26.91;54.53
6028;BME280;3042;43.194;27.646;2023-05-07T08:43:41;101845.34;;;27.01;52.53
6028;BME280;3042;43.194;27.646;2023-05-07T08:46:09;101836.50;;;26.97;50.88
6028;BME280;3042;43.194;27.646;2023-05-07T08:48:36;101846.25;;;26.93;52.18
6028;BME280;3042;43.194;27.646;2023-05-07T08:51:05;101866.78;;;26.55;52.37
6028;BME280;3042;43.194;27.646;2023-05-07T08:53:33;101753.81;;;26.12;51.40
6028;BME280;3042;43.194;27.646;2023-05-07T08:56:00;101871.22;;;26.42;51.35
6028;BME280;3042;43.194;27.646;2023-05-07T08:58:28;101846.22;;;26.97;53.60
6028;BME280;3042;43.194;27.646;2023-05-07T09:00:55;101853.50;;;26.59;53.19
6028;BME280;3042;43.194;27.646;2023-05-07T09:03:23;101829.34;;;27.10;52.48
6028;BME280;3042;43.194;27.646;2023-05-07T09:05:50;101811.00;;;26.74;53.39
6028;BME280;3042;43.194;27.646;2023-05-07T09:08:24;101833.69;;;27.25;53.40
6028;BME280;3042;43.194;27.646;2023-05-07T09:10:52;101834.75;;;26.98;53.35
6028;BME280;3042;43.194;27.646;2023-05-07T09:13:19;101832.91;;;27.06;53.28
6028;BME280;3042;43.194;27.646;2023-05-07T09:15:46;101835.56;;;27.07;53.49
6028;BME280;3042;43.194;27.646;2023-05-07T09:18:14;101838.41;;;26.69;51.83
6028;BME280;3042;43.194;27.646;2023-05-07T09:20:41;101839.19;;;26.89;53.48
6028;BME280;3042;43.194;27.646;2023-05-07T09:23:08;101839.31;;;26.72;54.11
6028;BME280;3042;43.194;27.646;2023-05-07T09:25:37;101832.16;;;26.84;54.65
6028;BME280;3042;43.194;27.646;2023-05-07T09:28:05;101823.31;;;26.88;54.79
6028;BME280;3042;43.194;27.646;2023-05-07T09:30:34;101818.81;;;26.94;53.15
6028;BME280;3042;43.194;27.646;2023-05-07T09:33:02;101802.72;;;27.27;54.39
6028;BME280;3042;43.194;27.646;2023-05-07T09:35:30;101815.28;;;26.94;53.33
6028;BME280;3042;43.194;27.646;2023-05-07T09:37:59;101825.13;;;26.73;53.39
6028;BME280;3042;43.194;27.646;2023-05-07T09:40:27;101798.34;;;27.16;53.09
6028;BME280;3042;43.194;27.646;2023-05-07T09:42:56;101784.25;;;27.11;55.08
6028;BME280;3042;43.194;27.646;2023-05-07T09:45:25;101730.09;;;27.35;53.84
6028;BME280;3042;43.194;27.646;2023-05-07T09:47:54;101763.28;;;27.76;53.72
6028;BME280;3042;43.194;27.646;2023-05-07T09:50:26;101783.94;;;27.48;54.01
6028;BME280;3042;43.194;27.646;2023-05-07T09:52:54;101775.03;;;27.55;53.05
6028;BME280;3042;43.194;27.646;2023-05-07T09:55:22;101808.31;;;26.79;53.45
6028;BME280;3042;43.194;27.646;2023-05-07T09:57:50;101778.72;;;27.39;52.57
6028;BME280;3042;43.194;27.646;2023-05-07T10:00:20;101784.09;;;27.30;53.63
6028;BME280;3042;43.194;27.646;2023-05-07T10:02:49;101778.50;;;27.65;53.94
6028;BME280;3042;43.194;27.646;2023-05-07T10:05:18;101772.41;;;27.52;54.40
6028;BME280;3042;43.194;27.646;2023-05-07T10:07:46;101771.31;;;27.72;53.49
6028;BME280;3042;43.194;27.646;2023-05-07T10:10:14;101767.91;;;27.61;52.35
6028;BME280;3042;43.194;27.646;2023-05-07T10:12:42;101777.72;;;27.52;54.79
6028;BME280;3042;43.194;27.646;2023-05-07T10:15:10;101764.13;;;27.86;53.91
6028;BME280;3042;43.194;27.646;2023-05-07T10:17:39;101746.25;;;28.01;52.61
6028;BME280;3042;43.194;27.646;2023-05-07T10:20:08;101746.03;;;28.17;52.52
6028;BME280;3042;43.194;27.646;2023-05-07T10:22:38;101707.72;;;27.60;52.68
6028;BME280;3042;43.194;27.646;2023-05-07T10:25:09;101722.16;;;27.31;53.52
6028;BME280;3042;43.194;27.646;2023-05-07T10:27:42;101734.53;;;28.17;58.96
6028;BME280;3042;43.194;27.646;2023-05-07T10:30:16;101688.72;;;27.11;56.10
6028;BME280;3042;43.194;27.646;2023-05-07T10:32:49;101667.69;;;26.87;56.64
6028;BME280;3042;43.194;27.646;2023-05-07T10:35:22;101751.91;;;27.67;57.86
6028;BME280;3042;43.194;27.646;2023-05-07T10:37:50;101746.44;;;27.82;55.33
6028;BME280;3042;43.194;27.646;2023-05-07T10:40:18;101735.63;;;27.97;52.75
6028;BME280;3042;43.194;27.646;2023-05-07T10:42:57;101715.81;;;28.23;52.18
6028;BME280;3042;43.194;27.646;2023-05-07T10:45:25;101717.59;;;28.24;52.53
6028;BME280;3042;43.194;27.646;2023-05-07T10:48:11;101728.41;;;28.09;53.97
6028;BME280;3042;43.194;27.646;2023-05-07T10:50:40;101566.53;;;27.24;53.44
6028;BME280;3042;43.194;27.646;2023-05-07T10:53:23;101718.66;;;28.09;53.55
6028;BME280;3042;43.194;27.646;2023-05-07T10:56:24;101724.78;;;28.16;55.12
6028;BME280;3042;43.194;27.646;2023-05-07T10:58:52;101760.91;;;27.50;56.95
6028;BME280;3042;43.194;27.646;2023-05-07T11:01:49;101740.56;;;27.49;56.53
6028;BME280;3042;43.194;27.646;2023-05-07T11:04:18;101743.84;;;27.74;57.28
6028;BME280;3042;43.194;27.646;2023-05-07T11:10:03;101726.53;;;27.40;56.19
6028;BME280;3042;43.194;27.646;2023-05-07T11:12:47;101719.88;;;27.82;56.61
6028;BME280;3042;43.194;27.646;2023-05-07T11:15:31;101732.97;;;27.97;57.96
6028;BME280;3042;43.194;27.646;2023-05-07T11:18:00;101745.72;;;27.68;55.88
6028;BME280;3042;43.194;27.646;2023-05-07T11:20:53;101761.19;;;27.20;56.15
6028;BME280;3042;43.194;27.646;2023-05-07T11:23:56;101753.00;;;27.46;57.90
6028;BME280;3042;43.194;27.646;2023-05-07T11:26:28;101751.19;;;27.48;58.46
6028;BME280;3042;43.194;27.646;2023-05-07T11:28:56;101757.53;;;27.33;61.95
6028;BME280;3042;43.194;27.646;2023-05-07T11:31:27;101711.91;;;26.85;58.23
6028;BME280;3042;43.194;27.646;2023-05-07T11:33:55;101777.22;;;27.01;59.03
6028;BME280;3042;43.194;27.646;2023-05-07T11:36:24;101766.47;;;27.26;60.34
6028;BME280;3042;43.194;27.646;2023-05-07T11:38:55;101766.34;;;27.40;64.35
6028;BME280;3042;43.194;27.646;2023-05-07T11:41:22;101765.38;;;27.47;65.27
6028;BME280;3042;43.194;27.646;2023-05-07T11:43:57;101750.34;;;27.47;66.46
6028;BME280;3042;43.194;27.646;2023-05-07T11:46:24;101744.44;;;27.11;67.69
6028;BME280;3042;43.194;27.646;2023-05-07T11:48:52;101778.94;;;27.11;66.99
6028;BME280;3042;43.194;27.646;2023-05-07T11:51:20;101775.47;;;27.00;67.65
6028;BME280;3042;43.194;27.646;2023-05-07T11:53:49;101770.97;;;27.08;69.86
6028;BME280;3042;43.194;27.646;2023-05-07T11:56:17;101763.81;;;27.24;70.82
6028;BME280;3042;43.194;27.646;2023-05-07T11:58:46;101764.72;;;27.15;69.78
6028;BME280;3042;43.194;27.646;2023-05-07T12:01:14;101771.94;;;26.98;70.59
6028;BME280;3042;43.194;27.646;2023-05-07T12:03:43;101782.81;;;26.58;70.55
6028;BME280;3042;43.194;27.646;2023-05-07T12:06:11;101733.13;;;26.86;72.98
6028;BME280;3042;43.194;27.646;2023-05-07T12:08:40;101761.34;;;26.98;73.11
6028;BME280;3042;43.194;27.646;2023-05-07T12:11:09;101774.78;;;26.72;70.96
6028;BME280;3042;43.194;27.646;2023-05-07T12:13:37;101785.34;;;26.81;74.86
6028;BME280;3042;43.194;27.646;2023-05-07T12:16:06;101757.88;;;26.87;72.68
6028;BME280;3042;43.194;27.646;2023-05-07T12:18:35;101741.84;;;26.99;73.64
6028;BME280;3042;43.194;27.646;2023-05-07T12:21:05;101762.34;;;26.77;76.00
6028;BME280;3042;43.194;27.646;2023-05-07T12:23:34;101772.25;;;26.40;74.30
6028;BME280;3042;43.194;27.646;2023-05-07T12:26:02;101774.06;;;26.33;75.64
6028;BME280;3042;43.194;27.646;2023-05-07T12:28:32;101773.19;;;26.29;73.55
6028;BME280;3042;43.194;27.646;2023-05-07T12:31:03;101781.19;;;26.17;74.31
6028;BME280;3042;43.194;27.646;2023-05-07T12:33:31;101771.47;;;26.19;75.08
6028;BME280;3042;43.194;27.646;2023-05-07T12:36:03;101632.22;;;25.41;73.69
6028;BME280;3042;43.194;27.646;2023-05-07T12:38:35;101767.03;;;26.27;74.45
6028;BME280;3042;43.194;27.646;2023-05-07T12:41:03;101757.28;;;26.31;73.23
6028;BME280;3042;43.194;27.646;2023-05-07T12:43:32;101768.88;;;25.98;72.85
6028;BME280;3042;43.194;27.646;2023-05-07T12:46:01;101749.56;;;25.22;72.00
6028;BME280;3042;43.194;27.646;2023-05-07T12:48:28;101770.72;;;25.53;71.85
6028;BME280;3042;43.194;27.646;2023-05-07T12:50:56;101774.25;;;25.48;72.16
6028;BME280;3042;43.194;27.646;2023-05-07T12:53:25;101770.72;;;25.56;72.54
6028;BME280;3042;43.194;27.646;2023-05-07T12:55:53;101771.59;;;25.53;73.73
6028;BME280;3042;43.194;27.646;2023-05-07T12:58:24;101761.88;;;25.55;72.16
6028;BME280;3042;43.194;27.646;2023-05-07T13:00:53;101775.13;;;25.46;72.42
6028;BME280;3042;43.194;27.646;2023-05-07T13:03:25;101764.53;;;25.40;72.25
6028;BME280;3042;43.194;27.646;2023-05-07T13:05:54;101760.13;;;25.56;71.16
6028;BME280;3042;43.194;27.646;2023-05-07T13:08:26;101765.44;;;25.34;70.35